createdAt,value
2022-10-17T00:00:38.521Z,14.80
2022-10-17T00:03:05.415Z,14.90
2022-10-17T00:05:32.040Z,15.00
2022-10-17T00:07:58.812Z,15.10
2022-10-17T00:10:25.642Z,15.10
2022-10-17T00:12:52.733Z,15.10
2022-10-17T00:15:20.567Z,15.20
2022-10-17T00:17:47.198Z,15.20
2022-10-17T00:20:14.138Z,15.20
2022-10-17T00:22:41.053Z,15.20
2022-10-17T00:25:07.929Z,15.20
2022-10-17T00:27:36.273Z,15.20
2022-10-17T00:30:03.896Z,15.20
2022-10-17T00:32:30.645Z,15.20
2022-10-17T00:34:58.503Z,15.20
2022-10-17T00:37:25.195Z,15.20
2022-10-17T00:39:51.839Z,15.30
2022-10-17T00:42:18.379Z,15.30
2022-10-17T00:44:47.375Z,15.20
2022-10-17T00:47:18.583Z,15.20
2022-10-17T00:49:45.775Z,15.20
2022-10-17T00:52:17.509Z,15.20
2022-10-17T00:54:48.620Z,15.20
2022-10-17T00:57:17.415Z,15.20
2022-10-17T00:59:48.698Z,15.20
2022-10-17T01:02:18.411Z,15.20
2022-10-17T01:04:48.885Z,15.30
2022-10-17T01:07:15.773Z,15.30
2022-10-17T01:09:44.961Z,15.30
2022-10-17T01:12:25.902Z,15.40
2022-10-17T01:15:21.757Z,15.40
2022-10-17T01:18:18.158Z,15.40
2022-10-17T01:21:22.049Z,15.50
2022-10-17T01:24:12.789Z,15.60
2022-10-17T01:27:00.077Z,15.60
2022-10-17T01:29:54.610Z,15.70
2022-10-17T01:32:37.007Z,15.80
2022-10-17T01:35:20.028Z,15.80
2022-10-17T01:38:09.286Z,15.90
2022-10-17T01:40:45.658Z,15.80
2022-10-17T01:43:15.182Z,15.90
2022-10-17T01:45:53.796Z,15.90
2022-10-17T01:48:27.893Z,15.90
2022-10-17T01:51:17.184Z,15.90
2022-10-17T01:53:52.057Z,16.00
2022-10-17T01:56:21.794Z,16.00
2022-10-17T01:58:56.005Z,16.00
2022-10-17T02:01:24.554Z,15.90
2022-10-17T02:03:52.273Z,16.00
2022-10-17T02:06:18.918Z,16.00
2022-10-17T02:08:48.727Z,16.00
2022-10-17T02:11:24.485Z,16.10
2022-10-17T02:14:09.143Z,16.10
2022-10-17T02:16:47.112Z,16.10
2022-10-17T02:19:16.677Z,16.00
2022-10-17T02:22:07.442Z,16.00
2022-10-17T02:24:51.603Z,16.10
2022-10-17T02:27:27.265Z,16.20
2022-10-17T02:30:08.700Z,16.20
2022-10-17T02:32:50.510Z,16.20
2022-10-17T02:35:20.041Z,16.20
2022-10-17T02:37:47.806Z,16.10
2022-10-17T02:40:17.341Z,16.10
2022-10-17T02:42:45.929Z,16.20
2022-10-17T02:45:14.262Z,16.20
2022-10-17T02:48:03.346Z,16.10
2022-10-17T02:51:04.670Z,16.20
2022-10-17T02:53:42.124Z,16.30
2022-10-17T02:56:18.767Z,16.20
2022-10-17T02:58:54.302Z,16.10
2022-10-17T03:01:21.589Z,16.10
2022-10-17T03:03:48.177Z,16.20
2022-10-17T03:06:14.785Z,16.10
2022-10-17T03:08:41.312Z,16.00
2022-10-17T03:11:07.856Z,16.10
2022-10-17T03:13:36.331Z,15.90
2022-10-17T03:16:06.347Z,16.00
2022-10-17T03:18:32.931Z,16.00
2022-10-17T03:20:59.486Z,15.90
2022-10-17T03:23:26.008Z,15.90
2022-10-17T03:25:52.776Z,16.10
2022-10-17T03:28:19.363Z,16.20
2022-10-17T03:30:46.086Z,16.30
2022-10-17T03:33:12.621Z,16.40
2022-10-17T03:35:42.586Z,16.50
2022-10-17T03:38:09.446Z,16.50
2022-10-17T03:40:35.977Z,16.60
2022-10-17T03:43:02.524Z,16.70
2022-10-17T03:45:29.087Z,16.60
2022-10-17T03:47:55.876Z,16.60
2022-10-17T03:50:22.649Z,16.60
2022-10-17T03:52:49.581Z,16.60
2022-10-17T03:55:17.602Z,16.50
2022-10-17T03:57:45.563Z,16.60
2022-10-17T04:00:13.053Z,16.50
2022-10-17T04:02:39.822Z,16.50
2022-10-17T04:05:07.111Z,16.60
2022-10-17T04:07:33.656Z,16.60
2022-10-17T04:10:00.443Z,16.70
2022-10-17T04:12:27.357Z,16.70
2022-10-17T04:14:54.546Z,16.80
2022-10-17T04:17:21.342Z,17.00
2022-10-17T04:19:49.486Z,17.10
2022-10-17T04:22:16.207Z,17.20
2022-10-17T04:24:42.821Z,17.20
2022-10-17T04:27:09.366Z,17.40
2022-10-17T04:29:35.962Z,17.50
2022-10-17T04:32:02.514Z,17.70
2022-10-17T04:34:29.042Z,17.70
2022-10-17T04:36:55.594Z,17.70
2022-10-17T04:39:22.262Z,17.90
2022-10-17T04:41:48.866Z,18.00
2022-10-17T04:44:15.385Z,18.00
2022-10-17T04:46:41.910Z,18.00
2022-10-17T04:49:08.894Z,17.90
2022-10-17T04:51:35.541Z,17.90
2022-10-17T04:54:02.125Z,18.10
2022-10-17T04:56:28.817Z,18.10
2022-10-17T04:58:55.405Z,18.10
2022-10-17T05:01:23.389Z,18.00
2022-10-17T05:03:50.214Z,18.00
2022-10-17T05:06:22.689Z,18.00
2022-10-17T05:08:49.818Z,18.00
2022-10-17T05:11:17.413Z,18.00
2022-10-17T05:13:44.007Z,18.00
2022-10-17T05:16:10.908Z,17.90
2022-10-17T05:18:37.474Z,18.00
2022-10-17T05:21:04.569Z,18.00
2022-10-17T05:23:31.118Z,18.00
2022-10-17T05:25:57.691Z,17.90
2022-10-17T05:28:24.342Z,18.00
2022-10-17T05:30:50.969Z,18.00
2022-10-17T05:33:17.597Z,18.00
2022-10-17T05:35:44.134Z,18.00
2022-10-17T05:38:10.770Z,18.10
2022-10-17T05:40:39.242Z,18.10
2022-10-17T05:43:06.222Z,18.00
2022-10-17T05:45:32.817Z,18.00
2022-10-17T05:47:59.332Z,18.10
2022-10-17T05:50:26.007Z,18.00
2022-10-17T05:52:55.789Z,17.90
2022-10-17T05:55:23.116Z,17.90
2022-10-17T05:57:50.409Z,17.80
2022-10-17T06:00:17.406Z,17.60
2022-10-17T06:02:47.131Z,17.70
2022-10-17T06:05:14.655Z,17.60
2022-10-17T06:07:41.606Z,17.80
2022-10-17T06:10:08.730Z,17.70
2022-10-17T06:12:35.299Z,17.90
2022-10-17T06:15:01.904Z,17.90
2022-10-17T06:17:30.207Z,18.00
2022-10-17T06:19:57.434Z,17.90
2022-10-17T06:22:24.118Z,18.00
2022-10-17T06:24:52.429Z,18.00
2022-10-17T06:27:19.275Z,18.10
2022-10-17T06:29:47.203Z,18.10
2022-10-17T06:32:15.341Z,18.10
2022-10-17T06:34:42.213Z,18.20
2022-10-17T06:37:08.845Z,18.40
2022-10-17T06:39:36.359Z,18.40
2022-10-17T06:42:03.919Z,18.40
2022-10-17T06:44:31.766Z,18.40
2022-10-17T06:46:59.549Z,18.40
2022-10-17T06:49:26.740Z,18.40
2022-10-17T06:51:53.466Z,18.50
2022-10-17T06:54:20.374Z,18.60
2022-10-17T06:56:47.002Z,18.60
2022-10-17T06:59:15.446Z,18.70
2022-10-17T07:01:46.050Z,18.70
2022-10-17T07:04:13.795Z,18.80
2022-10-17T07:06:40.575Z,18.60
2022-10-17T07:09:07.635Z,18.40
2022-10-17T07:11:35.126Z,18.20
2022-10-17T07:14:02.006Z,18.20
2022-10-17T07:16:28.875Z,18.10
2022-10-17T07:18:55.683Z,18.10
2022-10-17T07:21:22.262Z,18.10
2022-10-17T07:23:48.951Z,18.40
2022-10-17T07:26:17.241Z,18.60
2022-10-17T07:28:45.369Z,18.90
2022-10-17T07:31:15.363Z,19.00
2022-10-17T07:33:42.791Z,19.30
2022-10-17T07:36:09.975Z,19.60
2022-10-17T07:38:37.158Z,19.80
2022-10-17T07:41:05.804Z,20.10
2022-10-17T07:43:33.386Z,20.50
2022-10-17T07:46:01.576Z,20.70
2022-10-17T07:48:28.560Z,20.90
2022-10-17T07:50:55.144Z,21.10
2022-10-17T07:53:21.835Z,21.30
2022-10-17T07:55:49.522Z,21.40
2022-10-17T07:58:16.154Z,21.20
2022-10-17T08:00:42.796Z,21.20
2022-10-17T08:03:10.795Z,21.00
2022-10-17T08:05:37.325Z,20.90
2022-10-17T08:08:04.021Z,20.70
2022-10-17T08:10:30.745Z,20.70
2022-10-17T08:12:58.571Z,20.70
2022-10-17T08:15:29.396Z,20.60
2022-10-17T08:17:59.208Z,20.50
2022-10-17T08:20:26.973Z,20.40
2022-10-17T08:22:56.842Z,20.50
2022-10-17T08:25:23.948Z,20.50
2022-10-17T08:27:50.526Z,20.40
2022-10-17T08:30:17.524Z,20.30
2022-10-17T08:32:44.240Z,20.40
2022-10-17T08:35:10.965Z,20.30
2022-10-17T08:37:37.628Z,20.40
2022-10-17T08:40:05.084Z,20.50
2022-10-17T08:42:42.822Z,20.50
2022-10-17T08:45:33.698Z,20.50
2022-10-17T08:48:04.109Z,20.60
2022-10-17T08:50:43.715Z,20.90
2022-10-17T08:53:45.188Z,21.10
2022-10-17T08:56:43.669Z,21.10
2022-10-17T08:59:18.811Z,21.00
2022-10-17T09:02:20.768Z,21.00
2022-10-17T09:05:20.189Z,20.80
2022-10-17T09:08:06.995Z,20.70
2022-10-17T09:10:55.900Z,20.70
2022-10-17T09:13:27.292Z,20.70
2022-10-17T09:16:20.284Z,20.60
2022-10-17T09:18:57.253Z,20.70
2022-10-17T09:21:28.229Z,20.70
2022-10-17T09:24:09.601Z,20.60
2022-10-17T09:26:44.258Z,20.50
2022-10-17T09:29:36.938Z,20.50
2022-10-17T09:32:17.134Z,20.50
2022-10-17T09:34:44.102Z,20.40
2022-10-17T09:37:15.493Z,20.50
2022-10-17T09:39:43.403Z,20.40
2022-10-17T09:42:14.308Z,20.40
2022-10-17T09:44:55.889Z,20.50
2022-10-17T09:47:26.410Z,20.20
2022-10-17T09:49:53.832Z,20.30
2022-10-17T09:52:22.386Z,20.20
2022-10-17T09:54:52.164Z,20.10
2022-10-17T09:57:20.979Z,20.20
2022-10-17T10:00:00.092Z,20.30
2022-10-17T10:02:28.927Z,20.50
2022-10-17T10:05:06.585Z,20.40
2022-10-17T10:07:37.218Z,20.40
2022-10-17T10:10:07.075Z,20.40
2022-10-17T10:12:36.822Z,20.60
2022-10-17T10:15:33.421Z,20.60
2022-10-17T10:18:00.228Z,20.70
2022-10-17T10:20:37.532Z,20.80
2022-10-17T10:23:14.649Z,20.70
2022-10-17T10:26:02.314Z,20.80
2022-10-17T10:28:35.348Z,20.70
2022-10-17T10:31:08.253Z,20.20
2022-10-17T10:33:41.790Z,19.90
2022-10-17T10:36:09.145Z,19.70
2022-10-17T10:38:40.820Z,19.80
2022-10-17T10:41:09.559Z,19.80
2022-10-17T10:43:46.021Z,19.90
2022-10-17T10:46:25.215Z,20.10
2022-10-17T10:48:58.967Z,20.10
2022-10-17T10:51:38.276Z,20.30
2022-10-17T10:54:30.893Z,20.50
2022-10-17T10:57:03.329Z,20.60
2022-10-17T11:00:16.573Z,20.60
2022-10-17T11:03:04.469Z,20.80
2022-10-17T11:05:51.061Z,21.00
2022-10-17T11:08:28.905Z,21.10
2022-10-17T11:11:26.382Z,21.20
2022-10-17T11:14:08.067Z,21.40
2022-10-17T11:16:45.884Z,21.60
2022-10-17T11:19:18.333Z,21.70
2022-10-17T11:22:07.823Z,21.70
2022-10-17T11:24:44.540Z,21.80
2022-10-17T11:27:11.473Z,21.80
2022-10-17T11:29:39.887Z,21.70
2022-10-17T11:32:16.734Z,21.60
2022-10-17T11:34:50.739Z,21.80
2022-10-17T11:37:31.569Z,21.70
2022-10-17T11:40:02.965Z,21.50
2022-10-17T11:42:52.665Z,21.40
2022-10-17T11:45:22.646Z,21.40
2022-10-17T11:48:02.323Z,21.10
2022-10-17T11:53:35.337Z,21.20
2022-10-17T11:56:02.515Z,21.20
2022-10-17T11:58:52.203Z,21.00
2022-10-17T12:01:42.530Z,21.00
2022-10-17T12:04:42.739Z,21.00
2022-10-17T12:07:17.935Z,21.10
2022-10-17T12:09:51.046Z,21.10
2022-10-17T12:12:28.219Z,21.30
2022-10-17T12:15:15.133Z,21.20
2022-10-17T12:18:05.594Z,21.20
2022-10-17T12:20:35.162Z,21.20
2022-10-17T12:23:04.923Z,21.20
2022-10-17T12:25:34.253Z,21.10
2022-10-17T12:28:07.527Z,21.00
2022-10-17T12:30:35.090Z,21.10
2022-10-17T12:33:21.735Z,21.00
2022-10-17T12:35:51.136Z,20.80
2022-10-17T12:38:17.681Z,20.70
2022-10-17T12:40:48.687Z,20.70
2022-10-17T12:43:15.877Z,20.80
2022-10-17T12:45:48.754Z,20.70
2022-10-17T12:48:34.246Z,20.60
2022-10-17T12:51:17.553Z,20.70
2022-10-17T12:53:59.282Z,20.60
2022-10-17T12:56:36.489Z,20.60
2022-10-17T12:59:11.963Z,20.60
2022-10-17T13:01:40.248Z,20.50
2022-10-17T13:04:10.518Z,20.50
2022-10-17T13:06:43.608Z,20.60
2022-10-17T13:09:38.369Z,20.50
2022-10-17T13:12:12.180Z,20.50
2022-10-17T13:14:42.559Z,20.50
2022-10-17T13:17:30.650Z,20.50
2022-10-17T13:19:58.036Z,20.50
2022-10-17T13:22:27.446Z,20.60
2022-10-17T13:25:08.459Z,20.60
2022-10-17T13:27:36.677Z,20.80
2022-10-17T13:30:32.262Z,20.70
2022-10-17T13:33:00.066Z,20.80
2022-10-17T13:35:55.459Z,20.80
2022-10-17T13:38:28.576Z,20.80
2022-10-17T13:41:05.775Z,20.80
2022-10-17T13:43:38.653Z,20.90
2022-10-17T13:46:25.526Z,20.80
2022-10-17T13:48:53.227Z,20.80
2022-10-17T13:51:20.078Z,20.80
2022-10-17T13:53:46.646Z,20.70
2022-10-17T13:56:29.987Z,20.80
2022-10-17T13:58:59.917Z,20.60
2022-10-17T14:01:28.195Z,20.70
2022-10-17T14:04:07.752Z,20.60
2022-10-17T14:06:44.991Z,20.60
2022-10-17T14:09:20.268Z,20.70
2022-10-17T14:11:58.797Z,20.50
2022-10-17T14:14:26.250Z,20.40
2022-10-17T14:16:53.413Z,20.40
2022-10-17T14:19:35.267Z,20.30
2022-10-17T14:22:35.650Z,20.20
2022-10-17T14:25:02.927Z,20.20
2022-10-17T14:27:39.627Z,20.10
2022-10-17T14:33:28.258Z,20.30
2022-10-17T14:35:56.797Z,20.30
2022-10-17T14:38:24.130Z,20.20
2022-10-17T14:41:23.632Z,20.20
2022-10-17T14:43:54.139Z,20.10
2022-10-17T14:46:20.896Z,19.90
2022-10-17T14:48:52.881Z,19.70
2022-10-17T14:51:19.610Z,19.40
2022-10-17T14:54:19.153Z,19.20
2022-10-17T14:56:51.757Z,19.10
2022-10-17T14:59:51.405Z,19.00
2022-10-17T15:02:09.733Z,18.90
2022-10-17T15:04:36.506Z,18.80
2022-10-17T15:07:03.115Z,18.80
2022-10-17T15:09:29.722Z,18.80
2022-10-17T15:12:01.748Z,18.80
2022-10-17T15:14:29.191Z,18.80
2022-10-17T15:16:56.043Z,18.80
2022-10-17T15:19:22.557Z,18.80
2022-10-17T15:21:49.111Z,18.70
2022-10-17T15:24:16.045Z,18.70
2022-10-17T15:26:42.936Z,18.70
2022-10-17T15:29:15.065Z,18.60
2022-10-17T15:31:41.826Z,18.50
2022-10-17T15:34:08.412Z,18.40
2022-10-17T15:36:47.911Z,18.40
2022-10-17T15:39:14.455Z,18.40
2022-10-17T15:41:41.110Z,18.30
2022-10-17T15:44:07.909Z,18.30
2022-10-17T15:46:35.994Z,18.20
2022-10-17T15:49:07.458Z,18.20
2022-10-17T15:51:34.265Z,18.10
2022-10-17T15:54:01.518Z,18.00
2022-10-17T15:56:37.649Z,17.90
2022-10-17T15:59:07.668Z,17.70
2022-10-17T16:01:34.797Z,17.40
2022-10-17T16:04:02.053Z,17.30
2022-10-17T16:06:29.023Z,17.20
2022-10-17T16:08:55.650Z,17.10
2022-10-17T16:11:33.270Z,17.00
2022-10-17T16:14:02.046Z,17.00
2022-10-17T16:16:29.282Z,17.00
2022-10-17T16:18:56.583Z,16.90
2022-10-17T16:21:32.445Z,16.80
2022-10-17T16:23:59.098Z,16.80
2022-10-17T16:26:26.026Z,16.80
2022-10-17T16:28:52.842Z,16.80
2022-10-17T16:31:23.613Z,16.80
2022-10-17T16:33:52.017Z,16.80
2022-10-17T16:36:19.015Z,16.90
2022-10-17T16:38:46.167Z,16.80
2022-10-17T16:41:20.318Z,16.80
2022-10-17T16:43:48.848Z,16.90
2022-10-17T16:46:15.877Z,16.90
2022-10-17T16:48:43.746Z,16.90
2022-10-17T16:51:11.557Z,17.00
2022-10-17T16:53:40.043Z,17.10
2022-10-17T16:56:08.299Z,17.20
2022-10-17T16:58:34.868Z,17.10
2022-10-17T17:01:03.892Z,17.00
2022-10-17T17:03:30.523Z,17.00
2022-10-17T17:05:57.106Z,16.90
2022-10-17T17:08:23.641Z,16.80
2022-10-17T17:10:50.975Z,16.80
2022-10-17T17:13:17.926Z,16.80
2022-10-17T17:18:17.294Z,16.80
2022-10-17T17:20:43.831Z,16.70
2022-10-17T17:23:13.711Z,16.70
2022-10-17T17:25:42.454Z,16.60
2022-10-17T17:28:09.151Z,16.60
2022-10-17T17:30:36.035Z,16.60
2022-10-17T17:33:02.667Z,16.60
2022-10-17T17:35:29.330Z,16.60
2022-10-17T17:37:55.888Z,16.60
2022-10-17T17:40:22.430Z,16.60
2022-10-17T17:42:49.097Z,16.50
2022-10-17T17:45:15.995Z,16.50
2022-10-17T17:47:42.526Z,16.50
2022-10-17T17:50:09.271Z,16.50
2022-10-17T17:52:36.009Z,16.50
2022-10-17T17:55:02.747Z,16.50
2022-10-17T17:57:30.292Z,16.50
2022-10-17T17:59:56.813Z,16.60
2022-10-17T18:02:23.369Z,16.50
2022-10-17T18:04:49.918Z,16.60
2022-10-17T18:07:16.477Z,16.50
2022-10-17T18:09:43.015Z,16.50
2022-10-17T18:12:09.550Z,16.40
2022-10-17T18:14:36.146Z,16.40
2022-10-17T18:17:02.961Z,16.40
2022-10-17T18:19:29.528Z,16.40
2022-10-17T18:21:56.301Z,16.30
2022-10-17T18:24:23.017Z,16.30
2022-10-17T18:26:50.931Z,16.20
2022-10-17T18:29:17.534Z,16.20
2022-10-17T18:31:44.151Z,16.10
2022-10-17T18:34:10.755Z,16.20
2022-10-17T18:36:37.875Z,16.00
2022-10-17T18:39:05.274Z,15.90
2022-10-17T18:41:32.219Z,15.90
2022-10-17T18:43:59.009Z,15.80
2022-10-17T18:46:30.299Z,15.80
2022-10-17T18:48:57.181Z,15.80
2022-10-17T18:51:25.185Z,15.80
2022-10-17T18:53:54.125Z,15.90
2022-10-17T18:56:22.152Z,15.80
2022-10-17T18:58:49.068Z,15.70
2022-10-17T19:01:18.261Z,15.70
2022-10-17T19:03:46.743Z,15.60
2022-10-17T19:06:15.914Z,15.60
2022-10-17T19:08:43.509Z,15.60
2022-10-17T19:11:21.787Z,15.60
2022-10-17T19:13:48.853Z,15.60
2022-10-17T19:16:21.588Z,15.60
2022-10-17T19:18:53.414Z,15.60
2022-10-17T19:21:21.994Z,15.60
2022-10-17T19:23:54.256Z,15.50
2022-10-17T19:26:22.121Z,15.50
2022-10-17T19:28:51.959Z,15.40
2022-10-17T19:31:25.425Z,15.40
2022-10-17T19:33:53.886Z,15.50
2022-10-17T19:36:22.814Z,15.50
2022-10-17T19:38:49.473Z,15.40
2022-10-17T19:41:16.584Z,15.40
2022-10-17T19:43:43.875Z,15.40
2022-10-17T19:46:16.622Z,15.40
2022-10-17T19:48:43.644Z,15.40
2022-10-17T19:51:15.759Z,15.40
2022-10-17T19:53:43.620Z,15.40
2022-10-17T19:56:11.455Z,15.30
2022-10-17T19:58:46.293Z,15.40
2022-10-17T20:01:16.071Z,15.40
2022-10-17T20:03:43.002Z,15.30
2022-10-17T20:06:10.090Z,15.30
2022-10-17T20:08:38.268Z,15.30
2022-10-17T20:11:07.551Z,15.30
2022-10-17T20:13:37.512Z,15.30
2022-10-17T20:16:05.227Z,15.40
2022-10-17T20:18:32.178Z,15.30
2022-10-17T20:21:11.372Z,15.40
2022-10-17T20:23:39.086Z,15.30
2022-10-17T20:26:25.517Z,15.20
2022-10-17T20:28:53.536Z,15.20
2022-10-17T20:31:20.833Z,15.20
2022-10-17T20:33:47.606Z,15.20
2022-10-17T20:36:14.834Z,15.20
2022-10-17T20:38:41.455Z,15.10
2022-10-17T20:41:10.124Z,15.10
2022-10-17T20:43:37.452Z,15.10
2022-10-17T20:46:21.995Z,15.10
2022-10-17T20:48:54.070Z,15.10
2022-10-17T20:51:21.572Z,15.10
2022-10-17T20:53:48.758Z,15.10
2022-10-17T20:56:27.150Z,15.10
2022-10-17T20:58:56.043Z,15.10
2022-10-17T21:01:23.266Z,15.10
2022-10-17T21:03:50.014Z,15.20
2022-10-17T21:06:17.984Z,15.20
2022-10-17T21:08:46.096Z,15.20
2022-10-17T21:11:18.095Z,15.10
2022-10-17T21:13:45.521Z,15.10
2022-10-17T21:16:14.901Z,15.10
2022-10-17T21:18:42.106Z,15.20
2022-10-17T21:21:16.038Z,15.10
2022-10-17T21:23:44.407Z,15.00
2022-10-17T21:26:12.666Z,15.00
2022-10-17T21:28:40.936Z,15.00
2022-10-17T21:31:17.818Z,15.00
2022-10-17T21:33:47.595Z,15.00
2022-10-17T21:36:16.697Z,15.00
2022-10-17T21:38:45.389Z,15.00
2022-10-17T21:41:13.991Z,15.00
2022-10-17T21:43:41.506Z,14.90
2022-10-17T21:46:11.772Z,14.90
2022-10-17T21:48:38.609Z,14.90
2022-10-17T21:51:07.906Z,14.90
2022-10-17T21:53:34.914Z,14.90
2022-10-17T21:56:02.955Z,14.90
2022-10-17T21:58:29.957Z,15.10
2022-10-17T22:01:17.800Z,15.20
2022-10-17T22:03:51.715Z,15.20
2022-10-17T22:06:39.181Z,15.30
2022-10-17T22:09:16.657Z,15.30
2022-10-17T22:11:46.742Z,15.30
2022-10-17T22:14:17.246Z,15.20
2022-10-17T22:16:45.223Z,15.10
2022-10-17T22:19:13.418Z,15.10
2022-10-17T22:21:40.235Z,15.00
2022-10-17T22:24:10.516Z,15.00
2022-10-17T22:26:38.650Z,15.10
2022-10-17T22:29:07.732Z,15.10
2022-10-17T22:31:35.086Z,15.20
2022-10-17T22:34:01.676Z,15.30
2022-10-17T22:36:28.302Z,15.30
2022-10-17T22:38:54.955Z,15.20
2022-10-17T22:41:22.881Z,15.20
2022-10-17T22:43:49.541Z,15.40
2022-10-17T22:46:16.861Z,15.30
2022-10-17T22:48:43.634Z,15.30
2022-10-17T22:51:10.714Z,15.20
2022-10-17T22:53:37.688Z,15.20
2022-10-17T22:56:16.317Z,15.10
2022-10-17T22:58:43.609Z,15.20
2022-10-17T23:01:14.487Z,15.10
2022-10-17T23:03:41.215Z,15.10
2022-10-17T23:06:07.851Z,15.10
2022-10-17T23:08:34.683Z,15.00
2022-10-17T23:11:01.409Z,15.00
2022-10-17T23:13:28.101Z,15.00
2022-10-17T23:15:56.280Z,15.00
2022-10-17T23:18:24.923Z,15.00
2022-10-17T23:20:52.114Z,15.00
2022-10-17T23:23:19.328Z,15.00
2022-10-17T23:25:46.070Z,15.00
2022-10-17T23:28:13.018Z,15.00
2022-10-17T23:30:40.251Z,15.00
2022-10-17T23:33:07.104Z,15.00
2022-10-17T23:35:34.373Z,15.00
2022-10-17T23:38:01.165Z,15.00
2022-10-17T23:40:28.038Z,15.10
2022-10-17T23:42:54.589Z,15.10
2022-10-17T23:45:21.409Z,15.10
2022-10-17T23:47:48.198Z,15.10
2022-10-17T23:50:14.878Z,15.10
2022-10-17T23:52:41.388Z,15.10
2022-10-17T23:55:09.043Z,15.00
2022-10-17T23:57:35.645Z,15.00
